Pagrindinis puslapis
METAR-TAF:

METAR-TAF

Oro uostai :

Kangerlussuaq, Grenlandija

platuma: 67-01N, ilguma: 050-42W, Aukštis: 50 m

Dabartinis oras

Ataskaita buvo paskelbta 21 minutes, ne 17:50 UTC
Vėjas 8 kt iš Rytų
Temperatūra -3°C
Drėgmė 86%
Slėgis 1010 hPa
Matomumas 10 km arba daugiau

METAR: BGSF 221750Z AUTO 08008KT 9999NDV SCT043/// M03/M05 Q1010

Laikas: 16:11 (18:11 UTC)

Prognozė

Ataskaita buvo paskelbta 10 minutes, ne 18:01 UTC
Prognozė galioja nuo 22 metu 18 UTC su 22 metu 23 UTC
Vėjas 7 kt iš Rytų/Šiaurės Rytų
Matomumas 10 km arba daugiau
Išsisklaidę debesys ne aukštis 5000 ft
Laikinai
nuo 22 metu 18 UTC su 22 metu 23 UTC
Su prošvaistėmis ne aukštis 4000 ft

TAF: BGSF 221801Z 2218/2223 06007KT 9999 SCT050 TEMPO 2218/2223 BKN040

Orai ataskaitas ir orų prognozės (METAR, TAF).

turimą stotys yra geltonos ir raudonos taškus žemėlapyje.

Perkelti pele per norėdami pamatyti stoties vardą.

Tada spustelėkite, norėdami matyti oro stebėjimo ir prognozės.

Norėdami pakeisti žemėlapį: spustelėkite ant žalios mygtukų su juodo kryžiaus žemyn,; žalią mygtuką su brūkšneliu, jei norite nutolinti; arba žalių rodyklių gretimoms žemėlapius.


METAR-TAF: